Map

Track Data

SID SEASON NUMBER BASIN SUBBASIN NAME ISO_TIME NATURE LAT LON WMO_WIND WMO_PRES WMO_AGENCY TRACK_TYPE DIST2LAND LANDFALL IFLAG USA_AGENCY USA_ATCF_ID USA_LAT USA_LON USA_RECORD USA_STATUS USA_WIND USA_PRES USA_SSHS USA_R34_NE USA_R34_SE USA_R34_SW USA_R34_NW USA_R50_NE USA_R50_SE USA_R50_SW USA_R50_NW USA_R64_NE USA_R64_SE USA_R64_SW USA_R64_NW USA_POCI USA_ROCI USA_RMW USA_EYE TOKYO_LAT TOKYO_LON TOKYO_GRADE TOKYO_WIND TOKYO_PRES TOKYO_R50_DIR TOKYO_R50_LONG TOKYO_R50_SHORT TOKYO_R30_DIR TOKYO_R30_LONG TOKYO_R30_SHORT TOKYO_LAND CMA_LAT CMA_LON CMA_CAT CMA_WIND CMA_PRES HKO_LAT HKO_LON HKO_CAT HKO_WIND HKO_PRES NEWDELHI_LAT NEWDELHI_LON NEWDELHI_GRADE NEWDELHI_WIND NEWDELHI_PRES NEWDELHI_CI NEWDELHI_DP NEWDELHI_POCI REUNION_LAT REUNION_LON REUNION_TYPE REUNION_WIND REUNION_PRES REUNION_TNUM REUNION_CI REUNION_RMW REUNION_R34_NE REUNION_R34_SE REUNION_R34_SW REUNION_R34_NW REUNION_R50_NE REUNION_R50_SE REUNION_R50_SW REUNION_R50_NW REUNION_R64_NE REUNION_R64_SE REUNION_R64_SW REUNION_R64_NW BOM_LAT BOM_LON BOM_TYPE BOM_WIND BOM_PRES BOM_TNUM BOM_CI BOM_RMW BOM_R34_NE BOM_R34_SE BOM_R34_SW BOM_R34_NW BOM_R50_NE BOM_R50_SE BOM_R50_SW BOM_R50_NW BOM_R64_NE BOM_R64_SE BOM_R64_SW BOM_R64_NW BOM_ROCI BOM_POCI BOM_EYE BOM_POS_METHOD BOM_PRES_METHOD NADI_LAT NADI_LON NADI_CAT NADI_WIND NADI_PRES WELLINGTON_LAT WELLINGTON_LON WELLINGTON_WIND WELLINGTON_PRES DS824_LAT DS824_LON DS824_STAGE DS824_WIND DS824_PRES TD9636_LAT TD9636_LON TD9636_STAGE TD9636_WIND TD9636_PRES TD9635_LAT TD9635_LON TD9635_WIND TD9635_PRES TD9635_ROCI NEUMANN_LAT NEUMANN_LON NEUMANN_CLASS NEUMANN_WIND NEUMANN_PRES MLC_LAT MLC_LON MLC_CLASS MLC_WIND MLC_PRES USA_GUST BOM_GUST BOM_GUST_PER REUNION_GUST REUNION_GUST_PER USA_SEAHGT USA_SEARAD_NE USA_SEARAD_SE USA_SEARAD_SW USA_SEARAD_NW STORM_SPEED STORM_DIR
1929178N12128 1929 38 WP MM NOT_NAMED 1929-06-27 10:00:00 NR 12.2000 128.000 main 271 271 __________O___ -1 12.2000 128.000 7 12 4
1929178N12128 1929 38 WP MM NOT_NAMED 1929-06-27 12:00:00 NR 12.5968 128.026 main 275 275 __________P___ -1 12.5968 128.026 7 12 3
1929178N12128 1929 38 WP MM NOT_NAMED 1929-06-27 15:00:00 NR 13.1932 128.062 main 303 303 __________P___ -1 13.1932 128.062 7 12 3
1929178N12128 1929 38 WP MM NOT_NAMED 1929-06-27 18:00:00 NR 13.7927 128.089 main 333 333 __________P___ -1 13.7927 128.089 7 12 2
1929178N12128 1929 38 WP MM NOT_NAMED 1929-06-27 21:00:00 NR 14.3971 128.100 main 374 374 __________P___ -1 14.3971 128.100 7 12 0
1929178N12128 1929 38 WP MM NOT_NAMED 1929-06-27 22:00:00 NR 14.6000 128.100 main 389 389 __________O___ -1 14.6000 128.100 7 12 0
1929178N12128 1929 38 WP MM NOT_NAMED 1929-06-28 00:00:00 NR 15.0078 128.092 main 417 417 __________P___ -1 15.0078 128.092 7 12 358
1929178N12128 1929 38 WP MM NOT_NAMED 1929-06-28 03:00:00 NR 15.6198 128.068 main 441 446 __________P___ -1 15.6198 128.068 7 12 358
1929178N12128 1929 38 WP MM NOT_NAMED 1929-06-28 06:00:00 NR 16.2237 128.037 main 464 470 __________P___ -1 16.2237 128.037 7 12 357
1929178N12128 1929 38 WP MM NOT_NAMED 1929-06-28 09:00:00 NR 16.8101 128.008 main 504 504 __________P___ -1 16.8101 128.008 7 12 357
1929178N12128 1929 38 WP MM NOT_NAMED 1929-06-28 10:00:00 NR 17.0000 128.000 main 518 518 __________O___ -1 17.0000 128.000 7 11 357
1929178N12128 1929 38 WP MM NOT_NAMED 1929-06-28 12:00:00 NR 17.3619 127.999 main 549 549 __________P___ -1 17.3619 127.999 7 11 0
1929178N12128 1929 38 WP MM NOT_NAMED 1929-06-28 15:00:00 NR 17.8856 128.005 main 589 589 __________P___ -1 17.8856 128.005 7 10 0
1929178N12128 1929 38 WP MM NOT_NAMED 1929-06-28 18:00:00 NR 18.4005 128.010 main 601 601 __________P___ -1 18.4005 128.010 7 10 0
1929178N12128 1929 38 WP MM NOT_NAMED 1929-06-28 21:00:00 NR 18.9220 128.005 main 603 604 __________P___ -1 18.9220 128.005 7 11 358
1929178N12128 1929 38 WP MM NOT_NAMED 1929-06-28 22:00:00 NR 19.1000 128.000 main 605 605 __________O___ -1 19.1000 128.000 7 11 356
1929178N12128 1929 38 WP MM NOT_NAMED 1929-06-29 00:00:00 NR 19.4745 127.971 main 611 606 __________P___ -1 19.4745 127.971 7 12 355
1929178N12128 1929 38 WP MM NOT_NAMED 1929-06-29 03:00:00 NR 20.0490 127.913 main 614 617 __________P___ -1 20.0490 127.913 7 12 355
1929178N12128 1929 38 WP MM NOT_NAMED 1929-06-29 06:00:00 NR 20.6304 127.854 main 636 631 __________P___ -1 20.6304 127.854 7 12 355
1929178N12128 1929 38 WP MM NOT_NAMED 1929-06-29 09:00:00 NR 21.2092 127.809 main 655 655 __________P___ -1 21.2092 127.809 7 12 356
1929178N12128 1929 38 WP MM NOT_NAMED 1929-06-29 10:00:00 NR 21.4000 127.800 main 665 665 __________O___ -1 21.4000 127.800 3 12 359
1929178N12128 1929 38 WP MM NOT_NAMED 1929-06-29 12:00:00 NR 21.7985 127.797 main 673 645 __________P___ -1 21.7985 127.797 3 12 0
1929178N12128 1929 38 WP MM NOT_NAMED 1929-06-29 15:00:00 NR 22.3907 127.811 main 645 623 __________P___ -1 22.3907 127.811 3 12 2
1929178N12128 1929 38 WP MM NOT_NAMED 1929-06-29 18:00:00 NR 22.9510 127.842 main 623 619 __________P___ -1 22.9510 127.842 3 11 4
1929178N12128 1929 38 WP MM NOT_NAMED 1929-06-29 21:00:00 NR 23.4514 127.885 main 619 617 __________P___ -1 23.4514 127.885 3 10 5
1929178N12128 1929 38 WP MM NOT_NAMED 1929-06-29 22:00:00 NR 23.6000 127.900 main 617 609 __________O___ -1 23.6000 127.900 4 8 6
1929178N12128 1929 38 WP MM NOT_NAMED 1929-06-30 00:00:00 NR 23.8544 127.928 main 609 606 __________P___ -1 23.8544 127.928 4 7 7
1929178N12128 1929 38 WP MM NOT_NAMED 1929-06-30 03:00:00 NR 24.1730 127.975 main 612 609 __________P___ -1 24.1730 127.975 4 6 9
1929178N12128 1929 38 WP MM NOT_NAMED 1929-06-30 06:00:00 NR 24.4464 128.028 main 609 608 __________P___ -1 24.4464 128.028 4 5 11
1929178N12128 1929 38 WP MM NOT_NAMED 1929-06-30 09:00:00 NR 24.7089 128.082 main 615 615 __________P___ -1 24.7089 128.082 4 5 11
1929178N12128 1929 38 WP MM NOT_NAMED 1929-06-30 10:00:00 NR 24.8000 128.100 main 615 614 __________O___ -1 24.8000 128.100 4 6 10
1929178N12128 1929 38 WP MM NOT_NAMED 1929-06-30 12:00:00 NR 25.0057 128.136 main 614 614 __________P___ -1 25.0057 128.136 4 6 9
1929178N12128 1929 38 WP MM NOT_NAMED 1929-06-30 15:00:00 NR 25.3205 128.190 main 624 624 __________P___ -1 25.3205 128.190 4 7 8
1929178N12128 1929 38 WP MM NOT_NAMED 1929-06-30 18:00:00 NR 25.6454 128.241 main 626 605 __________P___ -1 25.6454 128.241 4 7 8
1929178N12128 1929 38 WP MM NOT_NAMED 1929-06-30 21:00:00 NR 25.9837 128.287 main 605 594 __________P___ -1 25.9837 128.287 4 7 7
1929178N12128 1929 38 WP MM NOT_NAMED 1929-06-30 22:00:00 NR 26.1000 128.300 main 594 574 __________O___ -1 26.1000 128.300 4 7 7
1929178N12128 1929 38 WP MM NOT_NAMED 1929-07-01 00:00:00 NR 26.3412 128.322 main 574 533 __________P___ -1 26.3412 128.322 4 7 3
1929178N12128 1929 38 WP MM NOT_NAMED 1929-07-01 03:00:00 NR 26.7157 128.350 main 533 489 __________P___ -1 26.7157 128.350 4 8 3
1929178N12128 1929 38 WP MM NOT_NAMED 1929-07-01 06:00:00 NR 27.0970 128.372 main 489 448 __________P___ -1 27.0970 128.372 4 8 3
1929178N12128 1929 38 WP MM NOT_NAMED 1929-07-01 09:00:00 NR 27.4759 128.393 main 448 437 __________P___ -1 27.4759 128.393 4 8 3
1929178N12128 1929 38 WP MM NOT_NAMED 1929-07-01 10:00:00 NR 27.6000 128.400 main 437 417 __________O___ -1 27.6000 128.400 4 7 0
1929178N12128 1929 38 WP MM NOT_NAMED 1929-07-01 12:00:00 NR 27.8435 128.415 main 417 377 __________P___ -1 27.8435 128.415 4 7 4
1929178N12128 1929 38 WP MM NOT_NAMED 1929-07-01 15:00:00 NR 28.1987 128.439 main 377 342 __________P___ -1 28.1987 128.439 4 7 4
1929178N12128 1929 38 WP MM NOT_NAMED 1929-07-01 18:00:00 NR 28.5452 128.465 main 342 304 __________P___ -1 28.5452 128.465 4 7 3
1929178N12128 1929 38 WP MM NOT_NAMED 1929-07-01 21:00:00 NR 28.8866 128.491 main 304 294 __________P___ -1 28.8866 128.491 4 7 5
1929178N12128 1929 38 WP MM NOT_NAMED 1929-07-01 22:00:00 NR 29.0000 128.500 main 294 __________O___ -1 29.0000 128.500 4 7 0

Digital Typhoon Data and Search

About IBTrACS Database

This database is a web-friendly format of International Best Track Archive for Climate Stewardship (IBTrACS), a global best track data archive curated by NOAA dating back to 1842.

Updated: 2021-10-21